Time;durP1;ratioP1;P1;durP2;ratioP2;P2;SDS_P1;SDS_P2;PMS_P1;PMS_P2;Temp;Humidity;BMP_temperature;BMP_pressure;BME280_temperature;BME280_humidity;BME280_pressure;Samples;Min_cycle;Max_cycle;Signal;HPM_P1;HPM_P2
2023/01/12 00:00:49;;;;;;;;;;;;;;;;;;5031704;28;1397;-77
2023/01/12 00:03:14;;;;;;;;;;;;;;;;;;5031712;28;1334;-76
2023/01/12 00:05:40;;;;;;;;;;;;;;;;;;5031681;28;821;-75
2023/01/12 00:08:05;;;;;;;;;;;;;;;;;;5032117;28;1346;-75
2023/01/12 00:10:31;;;;;;;;;;;;;;;;;;5031731;28;817;-75
2023/01/12 00:12:57;;;;;;;;;;;;;;;;;;5014424;28;1184;-74
2023/01/12 00:18:07;;;;;;;;;;;;;;;;;;5011664;28;1958;-75
2023/01/12 00:20:37;;;;;;;;;;;;;;;;;;5015094;28;1188;-75
2023/01/12 00:23:02;;;;;;;;;;;;;;;;;;5014864;28;1444;-74
2023/01/12 00:25:28;;;;;;;;;;;;;;;;;;5015095;28;1279;-75
2023/01/12 00:27:53;;;;;;;;;;;;;;;;;;5031217;28;1132;-72
2023/01/12 00:30:18;;;;;;;;;;;;;;;;;;5032695;28;921;-72
2023/01/12 00:32:44;;;;;;;;;;;;;;;;;;5030845;28;1271;-72
2023/01/12 00:35:09;;;;;;;;;;;;;;;;;;5031172;28;1378;-72
2023/01/12 00:37:35;;;;;;;;;;;;;;;;;;5014494;28;1902;-72
2023/01/12 00:40:00;;;;;;;;;;;;;;;;;;5030933;28;1246;-72
2023/01/12 00:45:21;;;;;;;;;;;;;;;;;;5032400;28;727;-73
2023/01/12 00:47:47;;;;;;;;;;;;;;;;;;5030267;28;1369;-72
2023/01/12 00:50:12;;;;;;;;;;;;;;;;;;5030527;28;897;-72
2023/01/12 00:52:38;;;;;;;;;;;;;;;;;;5031954;28;873;-72
2023/01/12 00:55:03;;;;;;;;;;;;;;;;;;5014273;28;1257;-72
2023/01/12 00:57:32;;;;;;;;;;;;;;;;;;5031710;28;1969;-72
2023/01/12 00:59:58;;;;;;;;;;;;;;;;;;5030793;28;1271;-72
2023/01/12 01:02:24;;;;;;;;;;;;;;;;;;5032369;28;900;-72
2023/01/12 01:04:49;;;;;;;;;;;;;;;;;;5014549;28;1379;-72
2023/01/12 01:07:20;;;;;;;;;;;;;;;;;;5030898;28;920;-72
2023/01/12 01:09:45;;;;;;;;;;;;;;;;;;5032083;28;885;-72
2023/01/12 01:12:10;;;;;;;;;;;;;;;;;;5030757;28;1302;-72
2023/01/12 01:14:38;;;;;;;;;;;;;;;;;;5031851;28;1588;-73
2023/01/12 01:17:04;;;;;;;;;;;;;;;;;;5014110;28;1902;-72
2023/01/12 01:19:29;;;;;;;;;;;;;;;;;;5030570;28;806;-72
2023/01/12 01:21:54;;;;;;;;;;;;;;;;;;5031463;28;865;-72
2023/01/12 01:24:19;;;;;;;;;;;;;;;;;;5014128;28;1334;-72
2023/01/12 01:26:45;;;;;;;;;;;;;;;;;;5030184;28;1314;-72
2023/01/12 01:29:15;;;;;;;;;;;;;;;;;;5030670;28;845;-72
2023/01/12 01:31:41;;;;;;;;;;;;;;;;;;5029778;28;1425;-72
2023/01/12 01:34:06;;;;;;;;;;;;;;;;;;5029909;28;845;-72
2023/01/12 01:36:31;;;;;;;;;;;;;;;;;;5030588;28;943;-72
2023/01/12 01:38:57;;;;;;;;;;;;;;;;;;5031167;28;1914;-72
2023/01/12 01:41:24;;;;;;;;;;;;;;;;;;5031341;28;853;-72
2023/01/12 01:43:55;;;;;;;;;;;;;;;;;;5031240;28;904;-72
2023/01/12 01:46:30;;;;;;;;;;;;;;;;;;5030041;28;1362;-72
2023/01/12 01:48:57;;;;;;;;;;;;;;;;;;5031029;28;996;-72
2023/01/12 01:51:25;;;;;;;;;;;;;;;;;;5031310;28;872;-72
2023/01/12 01:53:51;;;;;;;;;;;;;;;;;;5029722;28;1098;-73
2023/01/12 01:56:19;;;;;;;;;;;;;;;;;;5030199;28;1093;-72
2023/01/12 01:59:00;;;;;;;;;;;;;;;;;;5031447;28;1977;-72
2023/01/12 02:01:25;;;;;;;;;;;;;;;;;;5032669;28;1254;-72
2023/01/12 02:03:52;;;;;;;;;;;;;;;;;;5034734;28;900;-72
2023/01/12 02:06:18;;;;;;;;;;;;;;;;;;5034944;28;939;-72
2023/01/12 02:08:45;;;;;;;;;;;;;;;;;;5033892;28;809;-72
2023/01/12 02:16:49;;;;;;;;;;;;;;;;;;5035241;28;779;-72
2023/01/12 02:19:14;;;;;;;;;;;;;;;;;;5035054;28;1906;-73
2023/01/12 02:21:46;;;;;;;;;;;;;;;;;;5033589;28;1318;-72
2023/01/12 02:24:11;;;;;;;;;;;;;;;;;;5033278;28;1241;-72
2023/01/12 02:26:39;;;;;;;;;;;;;;;;;;5034834;28;837;-72
2023/01/12 02:29:16;;;;;;;;;;;;;;;;;;5034518;28;844;-72
2023/01/12 02:31:50;;;;;;;;;;;;;;;;;;5033436;28;1199;-71
2023/01/12 02:34:34;;;;;;;;;;;;;;;;;;5033174;28;1192;-72
2023/01/12 02:36:59;;;;;;;;;;;;;;;;;;5032463;28;1968;-72
2023/01/12 02:39:27;;;;;;;;;;;;;;;;;;5034480;28;840;-72
2023/01/12 02:44:52;;;;;;;;;;;;;;;;;;5034397;28;679;-75
2023/01/12 02:47:24;;;;;;;;;;;;;;;;;;5034246;28;881;-75
2023/01/12 02:49:52;;;;;;;;;;;;;;;;;;5034220;28;845;-75
2023/01/12 02:52:20;;;;;;;;;;;;;;;;;;5033983;28;845;-76
2023/01/12 02:54:47;;;;;;;;;;;;;;;;;;5032081;28;1260;-75
2023/01/12 02:57:15;;;;;;;;;;;;;;;;;;5033885;28;1918;-75
2023/01/12 02:59:42;;;;;;;;;;;;;;;;;;5032312;28;1180;-75
2023/01/12 03:02:09;;;;;;;;;;;;;;;;;;5032388;28;1342;-75
2023/01/12 03:04:35;;;;;;;;;;;;;;;;;;5033659;28;837;-75
2023/01/12 03:07:00;;;;;;;;;;;;;;;;;;5032566;28;1144;-75
2023/01/12 03:09:52;;;;;;;;;;;;;;;;;;5033618;28;884;-75
2023/01/12 03:12:28;;;;;;;;;;;;;;;;;;5028676;28;1245;-75
2023/01/12 03:14:55;;;;;;;;;;;;;;;;;;5031932;28;1346;-75
2023/01/12 03:17:26;;;;;;;;;;;;;;;;;;5032065;28;1973;-75
2023/01/12 03:19:53;;;;;;;;;;;;;;;;;;5032032;28;1199;-75
2023/01/12 03:22:21;;;;;;;;;;;;;;;;;;5033927;28;872;-75
2023/01/12 03:24:53;;;;;;;;;;;;;;;;;;5033360;28;955;-75
2023/01/12 03:27:35;;;;;;;;;;;;;;;;;;5032052;28;1239;-75
2023/01/12 03:30:09;;;;;;;;;;;;;;;;;;5031622;28;1343;-74
2023/01/12 03:32:35;;;;;;;;;;;;;;;;;;5031868;28;1219;-75
2023/01/12 03:35:00;;;;;;;;;;;;;;;;;;5032628;28;1120;-75
2023/01/12 03:37:31;;;;;;;;;;;;;;;;;;5031754;28;1898;-74
2023/01/12 03:39:59;;;;;;;;;;;;;;;;;;5031173;28;1223;-74
2023/01/12 03:42:34;;;;;;;;;;;;;;;;;;5031695;28;1294;-75
2023/01/12 03:45:18;;;;;;;;;;;;;;;;;;5031557;28;1243;-75
2023/01/12 03:47:43;;;;;;;;;;;;;;;;;;5033085;28;853;-75
2023/01/12 03:50:15;;;;;;;;;;;;;;;;;;5033026;28;833;-75
2023/01/12 03:52:41;;;;;;;;;;;;;;;;;;5033253;28;844;-75
2023/01/12 03:55:09;;;;;;;;;;;;;;;;;;5031565;28;1335;-74
2023/01/12 03:57:35;;;;;;;;;;;;;;;;;;5032823;28;1910;-74
2023/01/12 04:00:01;;;;;;;;;;;;;;;;;;5031531;28;893;-75
2023/01/12 04:02:27;;;;;;;;;;;;;;;;;;5032970;28;888;-74
2023/01/12 04:04:52;;;;;;;;;;;;;;;;;;5031400;28;1263;-75
2023/01/12 04:07:17;;;;;;;;;;;;;;;;;;5031320;28;1219;-75
2023/01/12 04:09:43;;;;;;;;;;;;;;;;;;5032913;28;964;-75
2023/01/12 04:12:11;;;;;;;;;;;;;;;;;;5031447;28;817;-75
2023/01/12 04:14:38;;;;;;;;;;;;;;;;;;5031084;28;1353;-75
2023/01/12 04:17:03;;;;;;;;;;;;;;;;;;5030824;28;1902;-75
2023/01/12 04:19:28;;;;;;;;;;;;;;;;;;5032044;28;880;-75
2023/01/12 04:24:38;;;;;;;;;;;;;;;;;;5030748;28;643;-75
2023/01/12 04:27:03;;;;;;;;;;;;;;;;;;5030607;28;1148;-75
2023/01/12 04:29:28;;;;;;;;;;;;;;;;;;5031117;28;1140;-75
2023/01/12 04:31:53;;;;;;;;;;;;;;;;;;5030733;28;1311;-75
2023/01/12 04:34:19;;;;;;;;;;;;;;;;;;5030750;28;833;-75
2023/01/12 04:36:44;;;;;;;;;;;;;;;;;;5030681;28;920;-75
2023/01/12 04:39:09;;;;;;;;;;;;;;;;;;5030840;28;1894;-75
2023/01/12 04:41:34;;;;;;;;;;;;;;;;;;5032222;28;873;-75
2023/01/12 04:44:00;;;;;;;;;;;;;;;;;;5031797;28;1055;-75
2023/01/12 04:46:25;;;;;;;;;;;;;;;;;;5030773;28;893;-74
2023/01/12 04:48:51;;;;;;;;;;;;;;;;;;5031836;28;802;-75
2023/01/12 04:51:17;;;;;;;;;;;;;;;;;;5014288;28;1232;-75
2023/01/12 04:53:42;;;;;;;;;;;;;;;;;;5030203;28;1278;-74
2023/01/12 04:56:10;;;;;;;;;;;;;;;;;;5030071;28;1219;-75
2023/01/12 04:58:35;;;;;;;;;;;;;;;;;;5030246;28;1954;-74
2023/01/12 05:01:07;;;;;;;;;;;;;;;;;;5030819;28;1064;-75
2023/01/12 05:03:33;;;;;;;;;;;;;;;;;;5030619;28;1140;-71
2023/01/12 05:06:00;;;;;;;;;;;;;;;;;;5030377;28;1176;-71
2023/01/12 05:11:09;;;;;;;;;;;;;;;;;;5032092;28;692;-71
2023/01/12 05:13:34;;;;;;;;;;;;;;;;;;5030748;28;786;-71
2023/01/12 05:16:06;;;;;;;;;;;;;;;;;;5013591;28;1311;-71
2023/01/12 05:18:31;;;;;;;;;;;;;;;;;;5014396;28;1909;-72
2023/01/12 05:20:57;;;;;;;;;;;;;;;;;;5032388;28;861;-71
2023/01/12 05:23:22;;;;;;;;;;;;;;;;;;5031799;28;876;-71
2023/01/12 05:25:47;;;;;;;;;;;;;;;;;;5030978;28;849;-71
2023/01/12 05:28:13;;;;;;;;;;;;;;;;;;5030457;28;1187;-72
2023/01/12 05:30:38;;;;;;;;;;;;;;;;;;5014457;28;1306;-71
2023/01/12 05:33:03;;;;;;;;;;;;;;;;;;5030842;28;809;-71
2023/01/12 05:35:28;;;;;;;;;;;;;;;;;;5031673;28;1105;-71
2023/01/12 05:37:55;;;;;;;;;;;;;;;;;;5034011;28;1970;-72
2023/01/12 05:40:20;;;;;;;;;;;;;;;;;;5034047;28;1097;-72
2023/01/12 05:45:32;;;;;;;;;;;;;;;;;;5035694;28;625;-72
2023/01/12 05:48:00;;;;;;;;;;;;;;;;;;5034459;28;1241;-72
2023/01/12 05:50:25;;;;;;;;;;;;;;;;;;5033794;28;1275;-72
2023/01/12 05:52:51;;;;;;;;;;;;;;;;;;5017299;28;1237;-72
2023/01/12 05:55:17;;;;;;;;;;;;;;;;;;5016707;28;1178;-71
2023/01/12 05:57:45;;;;;;;;;;;;;;;;;;5033459;28;1902;-71
2023/01/12 06:00:11;;;;;;;;;;;;;;;;;;5017766;28;1295;-71
2023/01/12 06:02:36;;;;;;;;;;;;;;;;;;5035802;28;874;-71
2023/01/12 06:05:03;;;;;;;;;;;;;;;;;;5017328;28;1268;-71
2023/01/12 06:07:29;;;;;;;;;;;;;;;;;;5017098;28;1382;-71
2023/01/12 06:09:54;;;;;;;;;;;;;;;;;;5033103;28;1195;-71
2023/01/12 06:15:03;;;;;;;;;;;;;;;;;;5033643;28;647;-71
2023/01/12 06:17:29;;;;;;;;;;;;;;;;;;5032946;28;1963;-71
2023/01/12 06:19:54;;;;;;;;;;;;;;;;;;5033844;28;766;-75
2023/01/12 06:22:20;;;;;;;;;;;;;;;;;;5034864;28;857;-75
2023/01/12 06:24:48;;;;;;;;;;;;;;;;;;5033062;28;880;-74
2023/01/12 06:27:14;;;;;;;;;;;;;;;;;;5017252;28;1425;-75
2023/01/12 06:29:39;;;;;;;;;;;;;;;;;;5017184;28;1438;-75
2023/01/12 06:32:04;;;;;;;;;;;;;;;;;;5033493;28;932;-75
2023/01/12 06:34:33;;;;;;;;;;;;;;;;;;5034636;28;967;-75
2023/01/12 06:36:59;;;;;;;;;;;;;;;;;;5032763;28;1366;-75
2023/01/12 06:39:24;;;;;;;;;;;;;;;;;;5034168;28;1957;-75
2023/01/12 06:44:34;;;;;;;;;;;;;;;;;;5034677;28;663;-75
2023/01/12 06:47:00;;;;;;;;;;;;;;;;;;5015411;28;1358;-75
2023/01/12 06:49:26;;;;;;;;;;;;;;;;;;5033162;28;1408;-75
2023/01/12 06:51:51;;;;;;;;;;;;;;;;;;5033278;28;869;-69
2023/01/12 06:54:17;;;;;;;;;;;;;;;;;;5032700;28;1473;-70
2023/01/12 06:56:42;;;;;;;;;;;;;;;;;;5033766;28;892;-70
2023/01/12 06:59:11;;;;;;;;;;;;;;;;;;5033924;28;1910;-69
2023/01/12 07:01:36;;;;;;;;;;;;;;;;;;5016134;28;1252;-70
2023/01/12 07:04:01;;;;;;;;;;;;;;;;;;5032343;28;884;-69
2023/01/12 07:06:27;;;;;;;;;;;;;;;;;;5032215;28;1483;-70
2023/01/12 07:08:55;;;;;;;;;;;;;;;;;;5033127;28;1156;-70
2023/01/12 07:11:20;;;;;;;;;;;;;;;;;;5016092;28;1171;-70
2023/01/12 07:13:46;;;;;;;;;;;;;;;;;;5032058;28;1208;-70
2023/01/12 07:16:11;;;;;;;;;;;;;;;;;;5033620;28;951;-70
2023/01/12 07:18:36;;;;;;;;;;;;;;;;;;5032035;28;1969;-70
2023/01/12 07:21:05;;;;;;;;;;;;;;;;;;5033236;28;897;-70
2023/01/12 07:23:31;;;;;;;;;;;;;;;;;;5031993;28;1374;-70
2023/01/12 07:25:56;;;;;;;;;;;;;;;;;;5031667;28;801;-70
2023/01/12 07:28:22;;;;;;;;;;;;;;;;;;5030120;28;900;-70
2023/01/12 07:30:47;;;;;;;;;;;;;;;;;;5031835;28;1136;-70
2023/01/12 07:33:13;;;;;;;;;;;;;;;;;;5031777;28;987;-70
2023/01/12 07:35:39;;;;;;;;;;;;;;;;;;5032353;28;996;-70
2023/01/12 07:38:05;;;;;;;;;;;;;;;;;;5032532;28;1977;-70
2023/01/12 07:40:30;;;;;;;;;;;;;;;;;;5031698;28;1247;-71
2023/01/12 07:42:59;;;;;;;;;;;;;;;;;;5032919;28;960;-70
2023/01/12 07:45:24;;;;;;;;;;;;;;;;;;5031310;28;1061;-70
2023/01/12 07:47:53;;;;;;;;;;;;;;;;;;5032685;28;852;-70
2023/01/12 07:50:19;;;;;;;;;;;;;;;;;;5030898;28;1271;-70
2023/01/12 07:52:45;;;;;;;;;;;;;;;;;;5031055;28;1270;-70
2023/01/12 07:55:10;;;;;;;;;;;;;;;;;;5032618;28;1292;-68
2023/01/12 07:57:36;;;;;;;;;;;;;;;;;;5031016;28;2305;-66
2023/01/12 08:00:02;;;;;;;;;;;;;;;;;;5031478;28;921;-67
2023/01/12 08:02:28;;;;;;;;;;;;;;;;;;5031458;28;1336;-67
2023/01/12 08:04:54;;;;;;;;;;;;;;;;;;5031141;28;1259;-67
2023/01/12 08:07:19;;;;;;;;;;;;;;;;;;5032209;28;837;-68
2023/01/12 08:09:44;;;;;;;;;;;;;;;;;;5031836;28;1167;-68
2023/01/12 08:12:09;;;;;;;;;;;;;;;;;;5031720;28;1122;-67
2023/01/12 08:14:36;;;;;;;;;;;;;;;;;;5031360;28;1333;-68
2023/01/12 08:17:02;;;;;;;;;;;;;;;;;;5031700;28;833;-67
2023/01/12 08:19:31;;;;;;;;;;;;;;;;;;5030764;28;1906;-68
2023/01/12 08:21:59;;;;;;;;;;;;;;;;;;5033021;28;865;-67
2023/01/12 08:24:31;;;;;;;;;;;;;;;;;;5032698;28;887;-67
2023/01/12 08:26:58;;;;;;;;;;;;;;;;;;5032653;28;1011;-68
2023/01/12 08:29:28;;;;;;;;;;;;;;;;;;5030603;28;1207;-67
2023/01/12 08:31:55;;;;;;;;;;;;;;;;;;5032142;28;893;-67
2023/01/12 08:34:20;;;;;;;;;;;;;;;;;;5030972;28;1420;-68
2023/01/12 08:36:46;;;;;;;;;;;;;;;;;;5015205;28;1169;-67
2023/01/12 08:39:11;;;;;;;;;;;;;;;;;;5031298;28;1918;-68
2023/01/12 08:41:36;;;;;;;;;;;;;;;;;;5014605;28;1290;-67
2023/01/12 08:44:06;;;;;;;;;;;;;;;;;;5032613;28;901;-67
2023/01/12 08:46:36;;;;;;;;;;;;;;;;;;5030788;28;1331;-67
2023/01/12 08:49:02;;;;;;;;;;;;;;;;;;5030828;28;1089;-67
2023/01/12 08:51:28;;;;;;;;;;;;;;;;;;5031946;28;995;-68
2023/01/12 08:53:53;;;;;;;;;;;;;;;;;;5031980;28;1205;-67
2023/01/12 08:56:18;;;;;;;;;;;;;;;;;;5031005;28;1054;-68
2023/01/12 08:58:43;;;;;;;;;;;;;;;;;;5030438;28;1899;-68
2023/01/12 09:01:10;;;;;;;;;;;;;;;;;;5030308;28;1200;-68
2023/01/12 09:03:36;;;;;;;;;;;;;;;;;;5030678;28;1231;-67
2023/01/12 09:06:14;;;;;;;;;;;;;;;;;;5030925;28;1207;-67
2023/01/12 09:08:39;;;;;;;;;;;;;;;;;;5030474;28;1184;-67
2023/01/12 09:11:05;;;;;;;;;;;;;;;;;;5034078;28;939;-68
2023/01/12 09:13:31;;;;;;;;;;;;;;;;;;5017957;28;1176;-67
2023/01/12 09:16:00;;;;;;;;;;;;;;;;;;5034579;28;1382;-67
2023/01/12 09:18:25;;;;;;;;;;;;;;;;;;5035502;28;1906;-67
2023/01/12 09:20:51;;;;;;;;;;;;;;;;;;5034694;28;884;-68
2023/01/12 09:23:17;;;;;;;;;;;;;;;;;;5017899;28;1385;-67
2023/01/12 09:25:42;;;;;;;;;;;;;;;;;;5034599;28;1008;-67
2023/01/12 09:28:07;;;;;;;;;;;;;;;;;;5034312;28;845;-67
2023/01/12 09:30:32;;;;;;;;;;;;;;;;;;5033912;28;1188;-68
2023/01/12 09:32:58;;;;;;;;;;;;;;;;;;5033810;28;1103;-67
2023/01/12 09:35:23;;;;;;;;;;;;;;;;;;5035833;28;914;-67
2023/01/12 09:37:48;;;;;;;;;;;;;;;;;;5017348;28;1941;-67
2023/01/12 09:40:14;;;;;;;;;;;;;;;;;;5034597;28;1286;-67
2023/01/12 09:48:09;;;;;;;;;;;;;;;;;;5035955;28;738;-67
2023/01/12 09:50:53;;;;;;;;;;;;;;;;;;5033958;28;1113;-67
2023/01/12 09:53:31;;;;;;;;;;;;;;;;;;5034568;28;1196;-67
2023/01/12 09:56:15;;;;;;;;;;;;;;;;;;5035477;28;1114;-67
2023/01/12 09:58:50;;;;;;;;;;;;;;;;;;5033797;28;1960;-67
2023/01/12 10:01:16;;;;;;;;;;;;;;;;;;5035485;28;863;-67
2023/01/12 10:03:42;;;;;;;;;;;;;;;;;;5033590;28;1264;-67
2023/01/12 10:06:13;;;;;;;;;;;;;;;;;;5035283;28;825;-67
2023/01/12 10:08:45;;;;;;;;;;;;;;;;;;5033269;28;1259;-67
2023/01/12 10:11:28;;;;;;;;;;;;;;;;;;5033445;28;1219;-68
2023/01/12 10:14:03;;;;;;;;;;;;;;;;;;5034853;28;876;-68
2023/01/12 10:17:00;;;;;;;;;;;;;;;;;;5035335;28;1023;-68
2023/01/12 10:19:44;;;;;;;;;;;;;;;;;;5000468;28;1899;-68
2023/01/12 10:22:35;;;;;;;;;;;;;;;;;;5034338;28;837;-67
2023/01/12 10:25:21;;;;;;;;;;;;;;;;;;5034914;28;860;-67
2023/01/12 10:27:48;;;;;;;;;;;;;;;;;;5022612;28;1217;-68
2023/01/12 10:30:13;;;;;;;;;;;;;;;;;;5033226;28;1298;-68
2023/01/12 10:32:39;;;;;;;;;;;;;;;;;;5032810;28;1175;-67
2023/01/12 10:35:11;;;;;;;;;;;;;;;;;;5033283;28;1566;-68
2023/01/12 10:37:44;;;;;;;;;;;;;;;;;;5032679;28;1974;-67
2023/01/12 10:40:18;;;;;;;;;;;;;;;;;;5031591;28;1154;-68
2023/01/12 10:45:34;;;;;;;;;;;;;;;;;;5034477;28;714;-68
2023/01/12 10:48:13;;;;;;;;;;;;;;;;;;5033777;28;811;-68
2023/01/12 10:50:39;;;;;;;;;;;;;;;;;;5033158;28;1229;-67
2023/01/12 10:53:15;;;;;;;;;;;;;;;;;;5032378;28;1416;-68
2023/01/12 10:55:41;;;;;;;;;;;;;;;;;;5033545;28;1098;-67
2023/01/12 10:58:39;;;;;;;;;;;;;;;;;;5032049;28;1913;-67
2023/01/12 11:01:05;;;;;;;;;;;;;;;;;;5010746;28;1314;-68
2023/01/12 11:03:36;;;;;;;;;;;;;;;;;;5033680;28;912;-67
2023/01/12 11:06:14;;;;;;;;;;;;;;;;;;5033817;28;888;-67
2023/01/12 11:08:39;;;;;;;;;;;;;;;;;;5031873;28;1374;-67
2023/01/12 11:11:34;;;;;;;;;;;;;;;;;;5032268;28;1232;-67
2023/01/12 11:14:01;;;;;;;;;;;;;;;;;;5024554;28;1227;-68
2023/01/12 11:16:44;;;;;;;;;;;;;;;;;;5032333;28;1275;-67
2023/01/12 11:19:10;;;;;;;;;;;;;;;;;;5033653;28;1906;-68
2023/01/12 11:21:38;;;;;;;;;;;;;;;;;;5033381;28;885;-67
2023/01/12 11:24:06;;;;;;;;;;;;;;;;;;5032114;28;1203;-67
2023/01/12 11:26:51;;;;;;;;;;;;;;;;;;5033507;28;900;-67
2023/01/12 11:29:36;;;;;;;;;;;;;;;;;;5031758;28;1343;-67
2023/01/12 11:32:05;;;;;;;;;;;;;;;;;;5032057;28;1277;-68
2023/01/12 11:34:33;;;;;;;;;;;;;;;;;;5032772;28;983;-67
2023/01/12 11:37:07;;;;;;;;;;;;;;;;;;5031558;28;1109;-67
2023/01/12 11:39:34;;;;;;;;;;;;;;;;;;5032739;28;1965;-68
2023/01/12 11:44:47;;;;;;;;;;;;;;;;;;5032595;28;664;-67
2023/01/12 11:47:13;;;;;;;;;;;;;;;;;;5033187;28;864;-68
2023/01/12 11:49:57;;;;;;;;;;;;;;;;;;5031205;28;1374;-68
2023/01/12 11:52:24;;;;;;;;;;;;;;;;;;5033079;28;876;-67
2023/01/12 11:54:49;;;;;;;;;;;;;;;;;;5032523;28;1186;-67
2023/01/12 11:57:23;;;;;;;;;;;;;;;;;;5015399;28;1172;-67
2023/01/12 12:00:07;;;;;;;;;;;;;;;;;;5031568;28;1508;-68
2023/01/12 12:02:52;;;;;;;;;;;;;;;;;;5032570;28;927;-67
2023/01/12 12:05:26;;;;;;;;;;;;;;;;;;5031387;28;1375;-67
2023/01/12 12:07:52;;;;;;;;;;;;;;;;;;5032498;28;845;-67
2023/01/12 12:10:24;;;;;;;;;;;;;;;;;;5032789;28;926;-67
2023/01/12 12:12:49;;;;;;;;;;;;;;;;;;5032517;28;864;-67
2023/01/12 12:15:21;;;;;;;;;;;;;;;;;;5031187;28;1330;-67
2023/01/12 12:17:46;;;;;;;;;;;;;;;;;;5030997;28;1882;-67
2023/01/12 12:20:26;;;;;;;;;;;;;;;;;;5031051;28;1324;-68
2023/01/12 12:23:00;;;;;;;;;;;;;;;;;;5032363;28;936;-67
2023/01/12 12:25:44;;;;;;;;;;;;;;;;;;5032700;28;849;-68
2023/01/12 12:28:24;;;;;;;;;;;;;;;;;;5030925;28;1212;-68
2023/01/12 12:31:04;;;;;;;;;;;;;;;;;;5032433;28;821;-67
2023/01/12 12:33:44;;;;;;;;;;;;;;;;;;5029592;28;1196;-68
2023/01/12 12:36:18;;;;;;;;;;;;;;;;;;5030870;28;1299;-68
2023/01/12 12:38:54;;;;;;;;;;;;;;;;;;5030677;28;1979;-67
2023/01/12 12:47:06;;;;;;;;;;;;;;;;;;4995176;28;1298;-68
2023/01/12 12:49:33;;;;;;;;;;;;;;;;;;5031051;28;1121;-68
2023/01/12 12:51:59;;;;;;;;;;;;;;;;;;5032072;28;1001;-68
2023/01/12 12:54:25;;;;;;;;;;;;;;;;;;5030424;28;1293;-68
2023/01/12 12:56:50;;;;;;;;;;;;;;;;;;5032292;28;868;-68
2023/01/12 12:59:31;;;;;;;;;;;;;;;;;;5030421;28;1918;-68
2023/01/12 13:01:58;;;;;;;;;;;;;;;;;;5031719;28;876;-67
2023/01/12 13:04:42;;;;;;;;;;;;;;;;;;5032285;28;1024;-68
2023/01/12 13:07:12;;;;;;;;;;;;;;;;;;5031507;28;1081;-67
2023/01/12 13:09:39;;;;;;;;;;;;;;;;;;5030942;28;1334;-68
2023/01/12 13:12:04;;;;;;;;;;;;;;;;;;5013994;28;1236;-68
2023/01/12 13:14:37;;;;;;;;;;;;;;;;;;5030522;28;1306;-68
2023/01/12 13:17:22;;;;;;;;;;;;;;;;;;5030218;28;1159;-67
2023/01/12 13:20:00;;;;;;;;;;;;;;;;;;5030138;28;1399;-67
2023/01/12 13:22:31;;;;;;;;;;;;;;;;;;5031675;28;1046;-67
2023/01/12 13:25:08;;;;;;;;;;;;;;;;;;5031231;28;829;-67
2023/01/12 13:27:48;;;;;;;;;;;;;;;;;;5031560;28;833;-67
2023/01/12 13:30:22;;;;;;;;;;;;;;;;;;5031083;28;861;-67
2023/01/12 13:32:53;;;;;;;;;;;;;;;;;;5031517;28;939;-67
2023/01/12 13:35:24;;;;;;;;;;;;;;;;;;5030642;28;1251;-67
2023/01/12 13:38:03;;;;;;;;;;;;;;;;;;5032125;28;1973;-67
2023/01/12 13:40:29;;;;;;;;;;;;;;;;;;5031332;28;814;-68
2023/01/12 13:43:14;;;;;;;;;;;;;;;;;;5013541;28;1216;-67
2023/01/12 13:45:55;;;;;;;;;;;;;;;;;;5030349;28;1349;-68
2023/01/12 13:48:21;;;;;;;;;;;;;;;;;;5030274;28;1232;-68
2023/01/12 13:50:49;;;;;;;;;;;;;;;;;;5029376;28;1485;-68
2023/01/12 13:53:22;;;;;;;;;;;;;;;;;;5029647;28;754;-68
2023/01/12 13:56:01;;;;;;;;;;;;;;;;;;5029776;28;1079;-67
2023/01/12 13:58:27;;;;;;;;;;;;;;;;;;5031990;28;1922;-67
2023/01/12 14:01:02;;;;;;;;;;;;;;;;;;5032940;28;838;-67
2023/01/12 14:03:33;;;;;;;;;;;;;;;;;;5032099;28;1216;-68
2023/01/12 14:06:14;;;;;;;;;;;;;;;;;;5033635;28;841;-68
2023/01/12 14:08:39;;;;;;;;;;;;;;;;;;5035553;28;853;-67
2023/01/12 14:11:15;;;;;;;;;;;;;;;;;;5035013;28;900;-68
2023/01/12 14:13:52;;;;;;;;;;;;;;;;;;5034034;28;1107;-67
2023/01/12 14:19:17;;;;;;;;;;;;;;;;;;5035383;28;1948;-67
2023/01/12 14:21:53;;;;;;;;;;;;;;;;;;5034245;28;1129;-68
2023/01/12 14:24:23;;;;;;;;;;;;;;;;;;5033747;28;1401;-68
2023/01/12 14:26:49;;;;;;;;;;;;;;;;;;5035583;28;853;-67
2023/01/12 14:29:14;;;;;;;;;;;;;;;;;;5033225;28;1377;-67
2023/01/12 14:31:52;;;;;;;;;;;;;;;;;;5034111;28;967;-68
2023/01/12 14:34:31;;;;;;;;;;;;;;;;;;5034929;28;873;-68
2023/01/12 14:36:57;;;;;;;;;;;;;;;;;;5032816;28;1254;-68
2023/01/12 14:39:24;;;;;;;;;;;;;;;;;;5033123;28;1965;-68
2023/01/12 14:47:27;;;;;;;;;;;;;;;;;;5035067;28;710;-67
2023/01/12 14:49:53;;;;;;;;;;;;;;;;;;5033284;28;1275;-67
2023/01/12 14:52:28;;;;;;;;;;;;;;;;;;5034606;28;754;-68
2023/01/12 14:54:54;;;;;;;;;;;;;;;;;;5032720;28;1236;-67
2023/01/12 14:57:20;;;;;;;;;;;;;;;;;;5016511;28;1292;-67
2023/01/12 14:59:46;;;;;;;;;;;;;;;;;;5033140;28;2065;-67
2023/01/12 15:02:12;;;;;;;;;;;;;;;;;;5032316;28;1133;-67
2023/01/12 15:04:48;;;;;;;;;;;;;;;;;;5034531;28;904;-67
2023/01/12 15:07:16;;;;;;;;;;;;;;;;;;5033451;28;829;-68
2023/01/12 15:09:50;;;;;;;;;;;;;;;;;;5032358;28;1342;-67
2023/01/12 15:12:24;;;;;;;;;;;;;;;;;;5032315;28;1393;-68
2023/01/12 15:14:49;;;;;;;;;;;;;;;;;;5034558;28;848;-67
2023/01/12 15:25:36;;;;;;;;;;;;;;;;;;5033131;28;691;-68
2023/01/12 15:28:02;;;;;;;;;;;;;;;;;;5031946;28;1275;-67
2023/01/12 15:30:27;;;;;;;;;;;;;;;;;;5032561;28;1243;-66
2023/01/12 15:32:53;;;;;;;;;;;;;;;;;;5033699;28;857;-67
2023/01/12 15:35:23;;;;;;;;;;;;;;;;;;5032538;28;1219;-67
2023/01/12 15:37:50;;;;;;;;;;;;;;;;;;5032945;28;1965;-67
2023/01/12 15:40:16;;;;;;;;;;;;;;;;;;5033481;28;825;-67
2023/01/12 15:42:42;;;;;;;;;;;;;;;;;;5033403;28;853;-67
2023/01/12 15:45:13;;;;;;;;;;;;;;;;;;5031501;28;856;-68
2023/01/12 15:47:38;;;;;;;;;;;;;;;;;;5033563;28;931;-67
2023/01/12 15:50:04;;;;;;;;;;;;;;;;;;5031896;28;1358;-67
2023/01/12 15:52:31;;;;;;;;;;;;;;;;;;5015809;28;1504;-68
2023/01/12 15:54:56;;;;;;;;;;;;;;;;;;5032250;28;1248;-68
2023/01/12 15:57:22;;;;;;;;;;;;;;;;;;5033116;28;881;-67
2023/01/12 15:59:47;;;;;;;;;;;;;;;;;;5032025;28;1959;-67
2023/01/12 16:02:23;;;;;;;;;;;;;;;;;;5031253;28;1707;-67
2023/01/12 16:04:48;;;;;;;;;;;;;;;;;;5031905;28;1370;-68
2023/01/12 16:07:14;;;;;;;;;;;;;;;;;;5030946;28;1247;-67
2023/01/12 16:09:40;;;;;;;;;;;;;;;;;;5014191;28;1172;-67
2023/01/12 16:12:05;;;;;;;;;;;;;;;;;;5031165;28;1402;-67
2023/01/12 16:14:30;;;;;;;;;;;;;;;;;;5032516;28;885;-67
2023/01/12 16:16:55;;;;;;;;;;;;;;;;;;5031485;28;1013;-67
2023/01/12 16:19:22;;;;;;;;;;;;;;;;;;5031915;28;1972;-67
2023/01/12 16:21:48;;;;;;;;;;;;;;;;;;5031376;28;857;-67
2023/01/12 16:24:13;;;;;;;;;;;;;;;;;;5032270;28;865;-67
2023/01/12 16:26:38;;;;;;;;;;;;;;;;;;5030696;28;1318;-68
2023/01/12 16:29:03;;;;;;;;;;;;;;;;;;5030807;28;857;-67
2023/01/12 16:31:30;;;;;;;;;;;;;;;;;;5032436;28;1050;-67
2023/01/12 16:33:55;;;;;;;;;;;;;;;;;;5032730;28;830;-68
2023/01/12 16:36:20;;;;;;;;;;;;;;;;;;5031010;28;1375;-67
2023/01/12 16:38:46;;;;;;;;;;;;;;;;;;5014646;28;1895;-68
2023/01/12 16:41:17;;;;;;;;;;;;;;;;;;5032090;28;881;-67
2023/01/12 16:43:43;;;;;;;;;;;;;;;;;;5030742;28;1259;-68
2023/01/12 16:46:09;;;;;;;;;;;;;;;;;;5013813;28;1331;-67
2023/01/12 16:48:34;;;;;;;;;;;;;;;;;;5031895;28;880;-68
2023/01/12 16:50:59;;;;;;;;;;;;;;;;;;5030753;28;1252;-67
2023/01/12 16:53:25;;;;;;;;;;;;;;;;;;5032006;28;837;-67
2023/01/12 16:55:51;;;;;;;;;;;;;;;;;;5032185;28;1062;-67
2023/01/12 16:58:17;;;;;;;;;;;;;;;;;;5014613;28;1912;-67
2023/01/12 17:00:43;;;;;;;;;;;;;;;;;;5030993;28;1334;-68
2023/01/12 17:03:08;;;;;;;;;;;;;;;;;;5028023;28;1186;-70
2023/01/12 17:05:38;;;;;;;;;;;;;;;;;;5028679;28;1304;-70
2023/01/12 17:08:03;;;;;;;;;;;;;;;;;;5028791;28;1257;-70
2023/01/12 17:10:28;;;;;;;;;;;;;;;;;;5031656;28;940;-71
2023/01/12 17:12:54;;;;;;;;;;;;;;;;;;5029700;28;1373;-70
2023/01/12 17:15:19;;;;;;;;;;;;;;;;;;5031688;28;1043;-70
2023/01/12 17:17:44;;;;;;;;;;;;;;;;;;5032026;28;1866;-70
2023/01/12 17:20:10;;;;;;;;;;;;;;;;;;5031785;28;968;-70
2023/01/12 17:22:36;;;;;;;;;;;;;;;;;;5028881;28;1155;-70
2023/01/12 17:25:01;;;;;;;;;;;;;;;;;;5029204;28;1156;-70
2023/01/12 17:27:27;;;;;;;;;;;;;;;;;;5030152;28;1327;-70
2023/01/12 17:29:52;;;;;;;;;;;;;;;;;;5013887;28;1368;-70
2023/01/12 17:32:17;;;;;;;;;;;;;;;;;;5032518;28;1200;-70
2023/01/12 17:34:46;;;;;;;;;;;;;;;;;;5034327;28;1412;-68
2023/01/12 17:37:11;;;;;;;;;;;;;;;;;;5018441;28;1271;-67
2023/01/12 17:39:38;;;;;;;;;;;;;;;;;;5034514;28;1965;-67
2023/01/12 17:44:48;;;;;;;;;;;;;;;;;;5035731;28;643;-67
2023/01/12 17:47:13;;;;;;;;;;;;;;;;;;5034483;28;896;-66
2023/01/12 17:49:38;;;;;;;;;;;;;;;;;;5034495;28;829;-69
2023/01/12 17:52:04;;;;;;;;;;;;;;;;;;5034323;28;908;-69
2023/01/12 17:54:29;;;;;;;;;;;;;;;;;;5034712;28;1391;-68
2023/01/12 17:56:54;;;;;;;;;;;;;;;;;;5035393;28;837;-68
2023/01/12 17:59:21;;;;;;;;;;;;;;;;;;5034947;28;1989;-69
2023/01/12 18:01:47;;;;;;;;;;;;;;;;;;5034239;28;1169;-71
2023/01/12 18:04:13;;;;;;;;;;;;;;;;;;5034478;28;904;-71
2023/01/12 18:06:39;;;;;;;;;;;;;;;;;;5033275;28;1099;-71
2023/01/12 18:09:04;;;;;;;;;;;;;;;;;;5033316;28;1267;-71
2023/01/12 18:11:30;;;;;;;;;;;;;;;;;;5034802;28;901;-71
2023/01/12 18:13:55;;;;;;;;;;;;;;;;;;5016646;28;1363;-71
2023/01/12 18:16:21;;;;;;;;;;;;;;;;;;5034391;28;936;-71
2023/01/12 18:18:47;;;;;;;;;;;;;;;;;;5033983;28;1977;-70
2023/01/12 18:21:13;;;;;;;;;;;;;;;;;;5016825;28;1181;-69
2023/01/12 18:23:39;;;;;;;;;;;;;;;;;;5034667;28;913;-68